Time;durP1;ratioP1;P1;durP2;ratioP2;P2;SDS_P1;SDS_P2;PMS_P1;PMS_P2;Temp;Humidity;BMP_temperature;BMP_pressure;BME280_temperature;BME280_humidity;BME280_pressure;Samples;Min_cycle;Max_cycle;Signal;HPM_P1;HPM_P2
2022/03/04 00:00:26;;;;;;;7.80;4.85;;;;;;;19.94;27.46;101747.84;7309134;19;130149;-61
2022/03/04 00:02:55;;;;;;;7.10;4.60;;;;;;;19.90;27.64;101747.47;7307353;19;129202;-61
2022/03/04 00:05:22;;;;;;;5.80;4.30;;;;;;;19.87;27.41;101747.94;7308606;19;129471;-61
2022/03/04 00:07:49;;;;;;;6.85;4.35;;;;;;;19.85;27.68;101744.53;7307212;19;129052;-62
2022/03/04 00:10:15;;;;;;;6.57;5.00;;;;;;;19.83;27.58;101752.25;7307852;19;129682;-61
2022/03/04 00:12:42;;;;;;;9.18;5.15;;;;;;;19.80;27.51;101753.56;7307521;19;130917;-62
2022/03/04 00:15:09;;;;;;;7.63;4.60;;;;;;;19.79;27.46;101760.19;7307329;19;128943;-62
2022/03/04 00:17:36;;;;;;;7.82;4.25;;;;;;;19.76;27.88;101760.66;7308715;19;130287;-61
2022/03/04 00:20:04;;;;;;;14.77;4.85;;;;;;;19.75;27.40;101759.00;7314495;19;130054;-61
2022/03/04 00:22:30;;;;;;;6.95;4.60;;;;;;;19.74;27.74;101770.31;7313608;19;131535;-61
2022/03/04 00:24:57;;;;;;;6.60;4.45;;;;;;;19.71;27.70;101765.22;7315967;19;128833;-61
2022/03/04 00:27:24;;;;;;;6.53;4.60;;;;;;;19.71;27.94;101768.00;7314583;19;128951;-61
2022/03/04 00:29:51;;;;;;;8.48;4.50;;;;;;;19.69;28.00;101768.25;7316546;19;130479;-61
2022/03/04 00:32:17;;;;;;;6.45;4.20;;;;;;;19.66;27.98;101765.94;7314049;19;129808;-61
2022/03/04 00:34:44;;;;;;;8.57;4.53;;;;;;;19.64;27.61;101774.50;7314880;19;129054;-61
2022/03/04 00:37:11;;;;;;;12.10;4.32;;;;;;;19.62;27.83;101765.56;7316055;19;129470;-62
2022/03/04 00:39:37;;;;;;;6.45;4.65;;;;;;;19.60;27.86;101767.69;7313609;19;129937;-61
2022/03/04 00:42:04;;;;;;;6.70;4.40;;;;;;;19.58;28.13;101761.53;7314947;19;130520;-61
2022/03/04 00:44:31;;;;;;;8.10;4.50;;;;;;;19.57;28.14;101768.16;7318257;19;129119;-61
2022/03/04 00:46:58;;;;;;;5.93;4.03;;;;;;;19.55;27.96;101759.25;7314166;19;129962;-61
2022/03/04 00:49:25;;;;;;;7.80;4.30;;;;;;;19.53;28.18;101766.94;7317252;19;131551;-61
2022/03/04 00:51:52;;;;;;;5.70;3.85;;;;;;;19.52;27.99;101770.81;7313892;19;129966;-61
2022/03/04 00:54:19;;;;;;;7.45;4.07;;;;;;;19.51;27.95;101766.31;7315884;19;132533;-61
2022/03/04 00:56:46;;;;;;;6.78;4.05;;;;;;;19.50;28.17;101784.06;7315221;19;129706;-61
2022/03/04 00:59:14;;;;;;;5.97;3.95;;;;;;;19.49;28.05;101772.13;7314280;19;129664;-61
2022/03/04 01:01:40;;;;;;;6.50;3.90;;;;;;;19.48;27.88;101780.66;7316029;19;129802;-61
2022/03/04 01:04:08;;;;;;;6.47;4.30;;;;;;;19.46;28.03;101772.56;7316773;19;129293;-61
2022/03/04 01:06:35;;;;;;;5.78;3.95;;;;;;;19.45;28.28;101775.56;7314906;19;129074;-61
2022/03/04 01:09:03;;;;;;;8.93;4.20;;;;;;;19.43;28.06;101775.81;7316415;19;130840;-61
2022/03/04 01:11:29;;;;;;;8.25;4.35;;;;;;;19.41;28.36;101777.97;7312530;19;129405;-61
2022/03/04 01:13:57;;;;;;;7.00;3.83;;;;;;;19.42;27.96;101784.38;7315844;19;131926;-62
2022/03/04 01:16:24;;;;;;;6.45;4.40;;;;;;;19.39;28.28;101777.34;7311638;19;131148;-61
2022/03/04 01:18:51;;;;;;;5.82;4.28;;;;;;;19.37;28.29;101772.03;7312281;19;129800;-61
2022/03/04 01:21:18;;;;;;;5.63;4.13;;;;;;;19.35;28.29;101776.97;7314395;19;129914;-61
2022/03/04 01:23:45;;;;;;;5.82;3.97;;;;;;;19.34;27.95;101775.25;7313257;19;129310;-61
2022/03/04 01:26:12;;;;;;;6.40;4.07;;;;;;;19.34;27.91;101777.19;7315649;19;129483;-61
2022/03/04 01:28:39;;;;;;;8.55;4.15;;;;;;;19.32;28.32;101777.41;7314026;19;132177;-61
2022/03/04 01:31:06;;;;;;;8.20;3.88;;;;;;;19.31;28.05;101764.66;7310273;19;131574;-61
2022/03/04 01:33:32;;;;;;;5.85;3.78;;;;;;;19.30;28.17;101771.28;7316140;19;130335;-61
2022/03/04 01:35:59;;;;;;;7.50;4.72;;;;;;;19.29;28.25;101774.25;7311715;19;129434;-61
2022/03/04 01:38:26;;;;;;;5.13;4.07;;;;;;;19.28;28.16;101773.41;7313627;19;130527;-61
2022/03/04 01:40:53;;;;;;;6.38;4.18;;;;;;;19.25;27.97;101776.66;7312408;19;132119;-61
2022/03/04 01:43:20;;;;;;;6.18;4.15;;;;;;;19.25;28.40;101773.88;7313529;19;129161;-61
2022/03/04 01:45:46;;;;;;;6.13;4.28;;;;;;;19.24;28.28;101768.56;7315152;19;129110;-61
2022/03/04 01:48:14;;;;;;;5.50;3.85;;;;;;;19.24;28.21;101769.41;7312933;19;129703;-61
2022/03/04 01:50:41;;;;;;;6.20;4.15;;;;;;;19.23;28.14;101762.16;7314741;19;130051;-61
2022/03/04 01:53:08;;;;;;;5.50;3.60;;;;;;;19.20;27.99;101757.06;7312676;19;128984;-61
2022/03/04 01:55:34;;;;;;;5.53;3.53;;;;;;;19.20;28.29;101759.84;7313050;19;129149;-61
2022/03/04 01:58:01;;;;;;;7.15;4.10;;;;;;;19.18;28.47;101761.97;7315885;19;130036;-61
2022/03/04 02:00:28;;;;;;;5.13;3.83;;;;;;;19.18;28.32;101770.31;7311062;19;129893;-61
2022/03/04 02:02:57;;;;;;;5.82;4.20;;;;;;;19.16;28.18;101761.34;7312145;19;128882;-61
2022/03/04 02:05:25;;;;;;;6.47;3.85;;;;;;;19.15;28.08;101762.44;7314697;19;129901;-61
2022/03/04 02:07:52;;;;;;;7.78;4.28;;;;;;;19.14;28.09;101763.50;7310514;19;130119;-61
2022/03/04 02:10:19;;;;;;;6.97;4.05;;;;;;;19.12;28.00;101754.56;7313333;19;130178;-61
2022/03/04 02:12:45;;;;;;;6.60;4.22;;;;;;;19.11;28.01;101764.81;7311138;19;129606;-61
2022/03/04 02:15:12;;;;;;;7.97;4.30;;;;;;;19.09;28.34;101755.88;7314091;19;128860;-61
2022/03/04 02:17:39;;;;;;;6.50;4.22;;;;;;;19.09;27.93;101758.66;7315131;19;129574;-61
2022/03/04 02:20:07;;;;;;;5.35;3.92;;;;;;;19.07;28.07;101763.56;7313470;19;130107;-61
2022/03/04 02:22:34;;;;;;;8.50;4.47;;;;;;;19.07;28.18;101752.47;7312962;19;129799;-61
2022/03/04 02:25:00;;;;;;;5.70;4.38;;;;;;;19.07;28.23;101758.03;7311283;19;129539;-61
2022/03/04 02:27:28;;;;;;;8.02;4.22;;;;;;;19.05;27.91;101758.28;7312778;19;129517;-61
2022/03/04 02:29:54;;;;;;;5.80;4.40;;;;;;;19.04;28.24;101748.25;7311939;19;129632;-61
2022/03/04 02:32:21;;;;;;;7.78;5.03;;;;;;;19.04;28.23;101756.56;7311948;19;131566;-61
2022/03/04 02:34:48;;;;;;;8.38;5.07;;;;;;;19.02;28.15;101750.41;7313206;19;128994;-61
2022/03/04 02:37:18;;;;;;;5.07;4.00;;;;;;;19.01;28.32;101747.88;7310595;19;129504;-61
2022/03/04 02:39:44;;;;;;;6.32;4.78;;;;;;;18.99;28.03;101756.41;7312028;19;129909;-61
2022/03/04 02:42:11;;;;;;;6.70;4.30;;;;;;;18.99;28.21;101756.41;7312673;19;131255;-61
2022/03/04 02:44:38;;;;;;;6.25;4.50;;;;;;;18.98;28.35;101743.59;7310668;19;129004;-61
2022/03/04 02:47:05;;;;;;;4.93;4.22;;;;;;;18.97;27.90;101750.22;7312690;19;129716;-61
2022/03/04 02:49:32;;;;;;;6.85;4.50;;;;;;;18.95;28.18;101746.84;7311074;19;130354;-61
2022/03/04 02:51:58;;;;;;;5.18;4.15;;;;;;;18.94;28.26;101750.72;7310115;19;128902;-61
2022/03/04 02:54:25;;;;;;;7.82;4.40;;;;;;;18.94;27.91;101745.16;7312741;19;128969;-61
2022/03/04 02:56:52;;;;;;;6.03;4.07;;;;;;;18.92;28.14;101744.53;7310002;19;129485;-61
2022/03/04 02:59:19;;;;;;;5.25;3.80;;;;;;;18.92;28.06;101750.09;7312257;19;130840;-61
2022/03/04 03:01:45;;;;;;;6.72;4.53;;;;;;;18.89;28.01;101747.75;7311959;19;128855;-61
2022/03/04 03:04:13;;;;;;;4.53;4.03;;;;;;;18.88;28.00;101744.16;7311459;19;129200;-61
2022/03/04 03:06:39;;;;;;;5.63;4.28;;;;;;;18.88;28.38;101751.59;7312298;19;132695;-61
2022/03/04 03:09:06;;;;;;;5.47;4.05;;;;;;;18.87;28.34;101747.13;7309007;19;131882;-61
2022/03/04 03:11:33;;;;;;;6.03;4.20;;;;;;;18.86;27.95;101748.19;7311362;19;130166;-61
2022/03/04 03:13:59;;;;;;;6.60;4.38;;;;;;;18.85;28.22;101752.03;7312907;19;129311;-61
2022/03/04 03:16:26;;;;;;;7.80;3.95;;;;;;;18.85;27.91;101749.28;7310584;19;129817;-61
2022/03/04 03:18:53;;;;;;;5.93;4.18;;;;;;;18.84;28.36;101747.56;7309470;19;131125;-61
2022/03/04 03:21:20;;;;;;;5.30;4.45;;;;;;;18.83;28.41;101752.28;7307303;19;128927;-62
2022/03/04 03:23:47;;;;;;;5.25;3.40;;;;;;;18.84;28.00;101753.13;7310157;19;129824;-61
2022/03/04 03:26:13;;;;;;;6.10;4.07;;;;;;;18.82;27.93;101758.06;7312266;19;130826;-61
2022/03/04 03:28:40;;;;;;;5.72;4.00;;;;;;;18.81;28.42;101756.38;7309621;19;130461;-61
2022/03/04 03:31:07;;;;;;;6.57;3.80;;;;;;;18.81;28.18;101764.69;7311297;19;132678;-61
2022/03/04 03:33:37;;;;;;;5.47;4.10;;;;;;;18.80;27.98;101758.28;7307996;19;129045;-61
2022/03/04 03:36:04;;;;;;;5.88;4.10;;;;;;;18.79;28.31;101752.97;7310975;19;129466;-61
2022/03/04 03:38:31;;;;;;;6.53;3.90;;;;;;;18.79;28.39;101758.53;7311700;19;129990;-61
2022/03/04 03:40:58;;;;;;;5.28;3.60;;;;;;;18.77;28.52;101758.72;7309624;19;129735;-62
2022/03/04 03:43:39;;;;;;;6.88;3.75;;;;;;;18.77;28.05;101765.13;7312611;19;129853;-61
2022/03/04 03:46:09;;;;;;;5.80;3.83;;;;;;;18.76;28.21;101760.66;7308977;19;129399;-61
2022/03/04 03:48:40;;;;;;;4.95;3.42;;;;;;;18.75;28.19;101755.38;7310540;19;130586;-61
2022/03/04 03:51:08;;;;;;;6.20;4.10;;;;;;;18.74;28.13;101759.19;7311965;19;129080;-61
2022/03/04 03:53:35;;;;;;;4.13;3.50;;;;;;;18.73;28.48;101752.78;7312258;19;129336;-61
2022/03/04 03:56:02;;;;;;;4.57;3.70;;;;;;;18.72;28.07;101756.63;7318947;19;129965;-61
2022/03/04 03:58:29;;;;;;;6.60;3.65;;;;;;;18.71;28.20;101754.94;7315312;19;129450;-61
2022/03/04 04:00:56;;;;;;;4.22;3.63;;;;;;;18.71;28.47;101754.94;7317404;19;129719;-61
2022/03/04 04:03:23;;;;;;;6.03;3.83;;;;;;;18.70;28.08;101758.81;7319586;19;129018;-61
2022/03/04 04:05:50;;;;;;;3.97;3.28;;;;;;;18.70;28.46;101764.34;7315726;19;129768;-61
2022/03/04 04:08:17;;;;;;;6.63;3.53;;;;;;;18.68;28.34;101758.19;7317847;19;129543;-61
2022/03/04 04:10:43;;;;;;;6.20;4.20;;;;;;;18.69;28.15;101759.03;7315130;19;129946;-61
2022/03/04 04:13:11;;;;;;;5.10;3.72;;;;;;;18.67;28.50;101759.25;7316581;19;129057;-61
2022/03/04 04:15:38;;;;;;;7.22;4.18;;;;;;;18.66;28.44;101763.09;7318584;19;130862;-61
2022/03/04 04:18:05;;;;;;;6.43;4.38;;;;;;;18.65;28.36;101766.94;7314545;19;130494;-61
2022/03/04 04:20:31;;;;;;;5.72;4.40;;;;;;;18.65;28.09;101772.50;7317254;19;128734;-61
2022/03/04 04:22:58;;;;;;;5.90;4.07;;;;;;;18.64;27.95;101769.97;7315236;19;129031;-61
2022/03/04 04:25:25;;;;;;;6.80;4.53;;;;;;;18.62;28.36;101772.94;7315746;19;132043;-61
2022/03/04 04:27:52;;;;;;;5.68;4.20;;;;;;;18.61;28.24;101771.22;7317669;19;131415;-61
2022/03/04 04:30:18;;;;;;;5.05;3.92;;;;;;;18.59;28.34;101773.38;7315708;19;129817;-61
2022/03/04 04:32:45;;;;;;;6.72;4.10;;;;;;;18.58;28.39;101771.72;7316723;19;129447;-61
2022/03/04 04:35:12;;;;;;;4.70;3.90;;;;;;;18.58;28.38;101774.47;7315515;19;129572;-61
2022/03/04 04:37:39;;;;;;;4.80;3.60;;;;;;;18.58;28.11;101771.72;7315009;19;130050;-61
2022/03/04 04:40:06;;;;;;;4.22;3.63;;;;;;;18.57;28.38;101772.78;7316214;19;129606;-61
2022/03/04 04:42:33;;;;;;;4.68;3.60;;;;;;;18.56;28.31;101771.09;7313756;19;131244;-61
2022/03/04 04:45:00;;;;;;;4.88;3.78;;;;;;;18.55;28.29;101778.53;7316853;19;130681;-61
2022/03/04 04:47:27;;;;;;;5.45;3.97;;;;;;;18.54;28.33;101781.53;7316541;19;130375;-61
2022/03/04 04:49:54;;;;;;;4.38;3.65;;;;;;;18.54;28.33;101781.53;7315430;19;130118;-61
2022/03/04 04:52:20;;;;;;;6.13;3.40;;;;;;;18.57;28.16;101784.69;7316552;19;129242;-61
2022/03/04 04:54:47;;;;;;;4.57;3.33;;;;;;;18.66;28.16;101776.97;7313971;19;130026;-61
2022/03/04 04:57:14;;;;;;;5.13;3.72;;;;;;;18.81;28.12;101775.78;7314200;19;131390;-61
2022/03/04 04:59:41;;;;;;;4.90;3.20;;;;;;;19.00;28.15;101776.66;7317124;19;131923;-61
2022/03/04 05:02:08;;;;;;;5.35;3.40;;;;;;;19.24;27.68;101774.13;7314796;19;128958;-61
2022/03/04 05:04:35;;;;;;;4.63;3.33;;;;;;;19.51;27.35;101785.75;7316550;19;129546;-61
2022/03/04 05:07:03;;;;;;;4.43;3.33;;;;;;;19.83;27.29;101799.44;7313931;19;130277;-61
2022/03/04 05:09:30;;;;;;;4.15;3.35;;;;;;;20.16;26.94;101802.91;7314988;19;128877;-61
2022/03/04 05:11:56;;;;;;;5.25;3.20;;;;;;;20.46;26.99;101802.88;7316613;19;129682;-61
2022/03/04 05:14:23;;;;;;;3.53;3.15;;;;;;;20.74;26.47;101793.84;7310547;19;129948;-61
2022/03/04 05:16:50;;;;;;;4.88;3.50;;;;;;;20.97;26.30;101795.03;7314922;19;129601;-61
2022/03/04 05:19:16;;;;;;;3.78;3.35;;;;;;;21.19;26.25;101795.25;7314850;19;129741;-61
2022/03/04 05:21:43;;;;;;;5.85;3.20;;;;;;;21.34;26.13;101791.13;7312877;19;129365;-60
2022/03/04 05:24:11;;;;;;;5.07;2.70;;;;;;;21.47;25.58;101790.88;7315655;19;130297;-60
2022/03/04 05:26:41;;;;;;;4.05;2.80;;;;;;;21.57;25.73;101797.78;7314539;19;130426;-60
2022/03/04 05:29:10;;;;;;;4.50;3.30;;;;;;;21.63;25.82;101797.63;7315080;19;129435;-61
2022/03/04 05:31:39;;;;;;;4.97;3.42;;;;;;;21.66;25.55;101804.69;7313382;19;129733;-60
2022/03/04 05:34:06;;;;;;;5.47;3.28;;;;;;;21.67;25.23;101814.69;7313572;19;133056;-60
2022/03/04 05:36:34;;;;;;;3.83;3.10;;;;;;;21.63;25.54;101816.28;7315161;19;130064;-60
2022/03/04 05:39:02;;;;;;;4.20;3.10;;;;;;;21.58;25.35;101810.59;7313012;19;129546;-60
2022/03/04 05:41:28;;;;;;;7.30;2.97;;;;;;;21.52;25.33;101821.66;7313021;19;129313;-60
2022/03/04 05:43:55;;;;;;;4.57;3.45;;;;;;;21.46;25.41;101818.97;7315209;19;130277;-60
2022/03/04 05:46:22;;;;;;;5.45;3.50;;;;;;;21.37;25.47;101821.25;7313816;19;129416;-60
2022/03/04 05:48:49;;;;;;;7.45;3.05;;;;;;;21.28;25.79;101819.94;7314404;19;130271;-60
2022/03/04 05:51:17;;;;;;;4.53;3.55;;;;;;;21.17;25.80;101811.34;7312183;19;129934;-60
2022/03/04 05:53:44;;;;;;;4.00;3.05;;;;;;;21.10;25.94;101813.41;7314595;19;129572;-60
2022/03/04 05:56:10;;;;;;;3.75;3.17;;;;;;;21.00;26.17;101816.78;7312380;19;130647;-60
2022/03/04 05:58:38;;;;;;;4.05;3.08;;;;;;;20.90;26.07;101827.66;7313389;19;129389;-60
2022/03/04 06:01:08;;;;;;;4.68;3.40;;;;;;;20.81;26.13;101824.38;7315842;19;129079;-60
2022/03/04 06:03:36;;;;;;;4.15;2.78;;;;;;;20.73;25.99;101827.47;7312006;19;130500;-60
2022/03/04 06:06:04;;;;;;;3.72;2.78;;;;;;;20.65;26.12;101827.84;7314179;19;130058;-60
2022/03/04 06:08:31;;;;;;;3.75;2.85;;;;;;;20.56;26.61;101833.72;7314292;19;129558;-60
2022/03/04 06:10:58;;;;;;;3.38;3.08;;;;;;;20.48;26.49;101834.06;7312034;19;129425;-60
2022/03/04 06:13:26;;;;;;;4.03;2.97;;;;;;;20.42;26.46;101835.84;7314538;19;129605;-61
2022/03/04 06:15:53;;;;;;;3.72;2.97;;;;;;;20.39;26.59;101832.72;7310169;19;129984;-60
2022/03/04 06:18:20;;;;;;;4.97;3.20;;;;;;;20.38;26.55;101844.91;7312667;19;129380;-60
2022/03/04 06:20:46;;;;;;;3.58;3.08;;;;;;;20.37;26.49;101844.03;7313692;19;129484;-60
2022/03/04 06:23:14;;;;;;;4.10;2.58;;;;;;;20.39;26.57;101835.50;7312108;19;129938;-60
2022/03/04 06:25:40;;;;;;;4.13;3.40;;;;;;;20.43;26.75;101837.56;7314519;19;129461;-60
2022/03/04 06:28:07;;;;;;;4.25;3.00;;;;;;;20.55;26.48;101840.38;7310165;19;130323;-60
2022/03/04 06:30:38;;;;;;;3.70;2.95;;;;;;;20.77;26.39;101842.66;7313545;19;129171;-60
2022/03/04 06:35:51;;;;;;;4.80;2.97;;;;;;;21.28;26.19;101848.59;7311030;19;129586;-60
2022/03/04 06:38:18;;;;;;;4.30;3.20;;;;;;;21.55;25.68;101842.56;7310681;19;129257;-61
2022/03/04 06:40:46;;;;;;;3.78;2.85;;;;;;;21.76;25.38;101843.88;7311425;19;129506;-61
2022/03/04 06:43:13;;;;;;;3.17;2.88;;;;;;;21.94;25.43;101839.22;7311375;19;129916;-61
2022/03/04 06:45:42;;;;;;;5.63;2.90;;;;;;;22.07;25.08;101843.66;7313531;19;131179;-61
2022/03/04 06:48:13;;;;;;;5.38;2.92;;;;;;;22.15;24.96;101843.25;7309917;19;129290;-61
2022/03/04 06:50:41;;;;;;;8.23;3.25;;;;;;;22.19;24.61;101846.41;7311379;19;129320;-62
2022/03/04 06:53:08;;;;;;;5.93;2.88;;;;;;;22.23;24.67;101847.63;7312163;19;129797;-62
2022/03/04 06:55:35;;;;;;;4.43;2.58;;;;;;;22.26;25.05;101859.13;7310030;19;129490;-59
2022/03/04 06:58:02;;;;;;;4.78;3.28;;;;;;;22.28;24.52;101864.44;7312671;19;129963;-60
2022/03/04 07:00:29;;;;;;;4.55;3.08;;;;;;;22.27;24.88;101862.78;7310502;19;129096;-60
2022/03/04 07:02:57;;;;;;;3.88;3.22;;;;;;;22.20;24.44;101860.09;7310850;19;129683;-60
2022/03/04 07:05:24;;;;;;;10.20;3.50;;;;;;;22.13;24.39;101863.03;7311530;19;129489;-59
2022/03/04 07:07:54;;;;;;;5.63;3.42;;;;;;;22.07;24.76;101875.16;7307624;19;129596;-59
2022/03/04 07:10:21;;;;;;;6.72;4.00;;;;;;;21.98;24.64;101871.91;7311589;19;129186;-59
2022/03/04 07:12:49;;;;;;;6.65;3.40;;;;;;;21.89;24.85;101881.75;7309672;19;129554;-59
2022/03/04 07:15:17;;;;;;;6.90;3.75;;;;;;;21.79;24.44;101885.16;7308298;19;129683;-58
2022/03/04 07:17:44;;;;;;;5.65;3.33;;;;;;;21.70;24.87;101886.63;7308801;19;130213;-59
2022/03/04 07:20:11;;;;;;;6.50;3.25;;;;;;;21.64;24.89;101880.09;7307231;19;132214;-59
2022/03/04 07:22:39;;;;;;;12.35;4.32;;;;;;;21.58;25.21;101886.66;7311098;19;132092;-59
2022/03/04 07:25:09;;;;;;;10.90;3.85;;;;;;;21.51;24.80;101886.78;7312038;19;131061;-59
2022/03/04 07:27:36;;;;;;;11.05;3.55;;;;;;;21.46;25.08;101888.56;7307689;19;129981;-59
2022/03/04 07:30:06;;;;;;;12.75;4.00;;;;;;;21.40;25.02;101901.50;7310255;19;130207;-59
2022/03/04 07:32:33;;;;;;;7.00;3.63;;;;;;;21.35;25.08;101901.38;7306536;19;129363;-59
2022/03/04 07:34:59;;;;;;;10.18;3.78;;;;;;;21.31;25.55;101897.38;7307756;19;130936;-59
2022/03/04 07:37:27;;;;;;;10.63;3.65;;;;;;;21.26;25.42;101895.31;7309693;19;130136;-59
2022/03/04 07:39:54;;;;;;;5.35;3.25;;;;;;;21.20;25.50;101897.13;7304384;19;129699;-60
2022/03/04 07:42:22;;;;;;;5.32;3.40;;;;;;;21.16;25.35;101893.16;7309825;19;129631;-59
2022/03/04 07:44:50;;;;;;;4.88;3.30;;;;;;;21.12;25.49;101896.63;7310043;19;130313;-59
2022/03/04 07:47:16;;;;;;;9.07;3.35;;;;;;;21.07;25.78;101897.34;7308752;19;128967;-59
2022/03/04 07:49:43;;;;;;;13.00;3.20;;;;;;;21.01;25.83;101899.16;7311956;19;129385;-60
2022/03/04 07:52:10;;;;;;;7.55;3.63;;;;;;;20.97;25.91;101908.22;7305889;19;130883;-59
2022/03/04 07:54:37;;;;;;;7.25;3.50;;;;;;;20.92;26.08;101906.16;7310154;19;130537;-59
2022/03/04 07:57:04;;;;;;;7.80;3.35;;;;;;;20.88;26.16;101921.59;7309106;19;128899;-59
2022/03/04 07:59:31;;;;;;;5.38;3.30;;;;;;;20.85;25.99;101917.38;7308809;19;129207;-59
2022/03/04 08:01:58;;;;;;;8.35;3.45;;;;;;;20.83;26.08;101918.72;7308702;19;130018;-59
2022/03/04 08:04:26;;;;;;;7.25;3.33;;;;;;;20.84;26.24;101928.75;7307634;19;130245;-59
2022/03/04 08:06:52;;;;;;;6.60;3.55;;;;;;;20.92;26.17;101919.22;7310330;19;129725;-59
2022/03/04 08:09:19;;;;;;;7.03;3.55;;;;;;;21.13;25.79;101921.44;7305606;19;129150;-59
2022/03/04 08:11:47;;;;;;;5.60;3.53;;;;;;;21.52;25.45;101921.88;7306784;19;129626;-59
2022/03/04 08:14:13;;;;;;;7.03;3.53;;;;;;;22.36;24.79;101911.47;7309014;19;129771;-59
2022/03/04 08:16:40;;;;;;;8.23;4.05;;;;;;;23.61;23.36;101912.56;7307203;19;130074;-60
2022/03/04 08:19:07;;;;;;;11.85;4.25;;;;;;;24.63;21.97;101916.06;7308526;19;129202;-60
2022/03/04 08:21:34;;;;;;;7.75;4.15;;;;;;;25.50;20.99;101922.47;7307037;19;129651;-60
2022/03/04 08:24:00;;;;;;;9.95;4.00;;;;;;;26.21;20.33;101925.16;7306385;19;130639;-60
2022/03/04 08:26:27;;;;;;;10.93;3.95;;;;;;;26.80;19.59;101923.91;7308888;19;129882;-60
2022/03/04 08:28:59;;;;;;;6.85;3.72;;;;;;;27.32;19.38;101921.94;7306334;19;129461;-60
2022/03/04 08:31:26;;;;;;;8.15;4.10;;;;;;;27.75;18.74;101932.03;7307469;19;129575;-62
2022/03/04 08:33:53;;;;;;;10.75;4.40;;;;;;;28.11;18.52;101931.94;7307861;19;131507;-60
2022/03/04 08:36:19;;;;;;;14.43;4.28;;;;;;;28.41;18.13;101935.75;7303679;19;129626;-60
2022/03/04 08:38:47;;;;;;;9.18;4.50;;;;;;;28.68;17.21;101935.34;7309137;19;130174;-61
2022/03/04 08:41:14;;;;;;;8.07;4.10;;;;;;;28.94;17.36;101934.28;7312087;19;129510;-60
2022/03/04 08:43:42;;;;;;;8.40;3.92;;;;;;;29.13;17.15;101938.13;7313231;19;129404;-60
2022/03/04 08:46:13;;;;;;;12.45;4.30;;;;;;;29.33;16.81;101941.06;7314172;19;128862;-60
2022/03/04 08:48:41;;;;;;;9.88;4.20;;;;;;;29.32;16.62;101943.03;7310727;19;129970;-60
2022/03/04 08:51:08;;;;;;;13.95;4.25;;;;;;;29.04;16.62;101942.69;7314284;19;130525;-60
2022/03/04 08:53:36;;;;;;;13.98;4.18;;;;;;;28.22;17.19;101942.03;7312090;19;130126;-60
2022/03/04 08:56:04;;;;;;;8.18;3.92;;;;;;;27.11;18.16;101939.94;7312758;19;129894;-60
2022/03/04 08:58:31;;;;;;;10.70;4.38;;;;;;;26.24;18.90;101945.06;7315373;19;129265;-60
2022/03/04 09:00:58;;;;;;;9.10;4.32;;;;;;;25.50;19.38;101946.84;7312543;19;129475;-59
2022/03/04 09:03:26;;;;;;;10.68;4.20;;;;;;;24.85;19.91;101942.06;7312936;19;129890;-59
2022/03/04 09:05:53;;;;;;;16.67;4.90;;;;;;;24.31;20.41;101942.00;7314278;19;129168;-59
2022/03/04 09:08:19;;;;;;;10.20;4.28;;;;;;;23.83;20.95;101950.88;7311908;19;130056;-59
2022/03/04 09:10:46;;;;;;;11.02;4.50;;;;;;;23.42;21.33;101948.25;7314334;19;130229;-59
2022/03/04 09:13:13;;;;;;;8.52;4.10;;;;;;;23.07;21.66;101946.56;7314268;19;129816;-59
2022/03/04 09:15:40;;;;;;;8.88;4.40;;;;;;;22.76;22.07;101945.97;7314289;19;129976;-60
2022/03/04 09:18:07;;;;;;;26.08;4.65;;;;;;;22.48;22.64;101941.22;7314376;19;129120;-59
2022/03/04 09:20:34;;;;;;;8.63;4.00;;;;;;;22.26;22.72;101941.91;7313347;19;129516;-59
2022/03/04 09:23:00;;;;;;;9.50;3.78;;;;;;;22.06;22.76;101940.34;7315917;19;129367;-59
2022/03/04 09:25:27;;;;;;;10.38;3.70;;;;;;;21.89;23.10;101944.97;7312251;19;129023;-59
2022/03/04 09:27:55;;;;;;;12.63;4.07;;;;;;;21.73;23.32;101952.97;7314792;19;128834;-59
2022/03/04 09:30:21;;;;;;;12.02;4.03;;;;;;;21.60;23.69;101950.44;7312666;19;129882;-59
2022/03/04 09:32:48;;;;;;;10.40;4.22;;;;;;;21.47;23.88;101946.75;7313429;19;129868;-59
2022/03/04 09:35:15;;;;;;;10.85;4.30;;;;;;;21.37;24.05;101940.94;7315583;19;128957;-59
2022/03/04 09:37:47;;;;;;;10.90;4.65;;;;;;;21.26;24.28;101945.41;7310890;19;129573;-59
2022/03/04 09:40:14;;;;;;;8.70;4.18;;;;;;;21.17;24.08;101944.06;7312842;19;129614;-59
2022/03/04 09:42:41;;;;;;;7.05;3.75;;;;;;;21.10;24.14;101952.53;7313562;19;129635;-59
2022/03/04 09:45:08;;;;;;;9.63;3.90;;;;;;;21.01;24.44;101949.22;7311283;19;129265;-59
2022/03/04 09:47:36;;;;;;;8.98;3.80;;;;;;;20.94;24.64;101947.63;7312481;19;128903;-58
2022/03/04 09:50:05;;;;;;;10.98;4.72;;;;;;;20.85;24.61;101945.19;7311897;19;129560;-59
2022/03/04 09:52:32;;;;;;;7.07;3.85;;;;;;;20.79;24.86;101948.06;7308803;19;130114;-61
2022/03/04 09:54:59;;;;;;;9.45;4.35;;;;;;;20.74;24.65;101948.75;7313651;19;129433;-69
2022/03/04 09:57:26;;;;;;;6.55;4.10;;;;;;;20.68;24.75;101944.97;7311436;19;129726;-70
2022/03/04 09:59:53;;;;;;;10.05;3.97;;;;;;;20.64;24.54;101952.09;7314520;19;129586;-71
2022/03/04 10:02:20;;;;;;;10.30;3.95;;;;;;;20.57;24.97;101951.34;7312425;19;130360;-72
2022/03/04 10:04:57;;;;;;;8.68;4.05;;;;;;;20.53;24.72;101948.19;7312948;19;129608;-72
2022/03/04 10:07:24;;;;;;;9.20;4.47;;;;;;;20.49;25.18;101949.72;7314080;19;129593;-71
2022/03/04 10:09:51;;;;;;;12.10;3.90;;;;;;;20.43;25.18;101948.75;7314045;19;129581;-66
2022/03/04 10:12:20;;;;;;;7.65;3.97;;;;;;;20.39;25.26;101947.50;7314033;19;131571;-70
2022/03/04 10:14:57;;;;;;;5.88;3.85;;;;;;;20.36;25.39;101953.53;7313473;19;129336;-68
2022/03/04 10:17:28;;;;;;;6.25;4.15;;;;;;;20.31;24.99;101947.81;7313158;19;128975;-69
2022/03/04 10:20:00;;;;;;;5.65;4.00;;;;;;;20.27;25.20;101947.44;7314482;19;129538;-66
2022/03/04 10:22:56;;;;;;;9.52;4.10;;;;;;;20.22;25.22;101944.50;7312266;19;130387;-62
2022/03/04 10:25:25;;;;;;;8.52;4.07;;;;;;;20.19;25.37;101942.19;7311503;19;128984;-66
2022/03/04 10:27:52;;;;;;;6.93;3.78;;;;;;;20.16;25.61;101945.44;7313547;19;129486;-67
2022/03/04 10:30:30;;;;;;;9.18;4.20;;;;;;;20.13;25.60;101940.34;7311003;19;130163;-59
2022/03/04 10:33:12;;;;;;;10.63;4.00;;;;;;;20.10;25.65;101938.88;7311483;19;129418;-59
2022/03/04 10:35:40;;;;;;;5.70;3.90;;;;;;;20.06;25.64;101945.16;7311002;19;128966;-59
2022/03/04 10:38:17;;;;;;;6.60;3.90;;;;;;;20.06;25.93;101939.59;7310893;19;129345;-59
2022/03/04 10:40:44;;;;;;;7.10;3.30;;;;;;;20.03;25.72;101949.22;7311640;19;130033;-58
2022/03/04 10:43:12;;;;;;;5.50;4.13;;;;;;;20.01;25.76;101950.53;7311214;19;130186;-59
2022/03/04 10:45:44;;;;;;;6.93;3.85;;;;;;;19.98;25.72;101949.88;7311710;19;129998;-59
2022/03/04 10:48:14;;;;;;;7.32;3.70;;;;;;;19.96;25.59;101946.47;7313721;19;129601;-59
2022/03/04 10:50:44;;;;;;;10.95;4.10;;;;;;;19.94;25.57;101945.84;7310818;19;130608;-59
2022/03/04 10:53:13;;;;;;;7.15;4.00;;;;;;;19.91;26.02;101942.69;7312263;19;129796;-59
2022/03/04 10:55:44;;;;;;;7.30;3.88;;;;;;;19.90;26.08;101949.31;7312200;19;129053;-59
2022/03/04 10:58:17;;;;;;;6.68;3.67;;;;;;;19.87;25.87;101947.88;7311737;19;129083;-59
2022/03/04 11:00:47;;;;;;;5.65;3.72;;;;;;;19.85;25.95;101944.47;7312542;19;129607;-59
2022/03/04 11:03:17;;;;;;;5.20;3.65;;;;;;;19.83;26.11;101943.84;7310026;19;131736;-59
2022/03/04 11:05:45;;;;;;;7.38;3.53;;;;;;;19.78;26.08;101938.97;7310274;19;129139;-61
2022/03/04 11:08:13;;;;;;;6.07;3.90;;;;;;;19.78;26.28;101938.16;7312486;19;129646;-64
2022/03/04 11:10:40;;;;;;;6.38;3.40;;;;;;;19.75;26.28;101936.69;7310832;19;131189;-60
2022/03/04 11:13:08;;;;;;;10.65;4.15;;;;;;;19.75;26.17;101930.25;7312865;19;129508;-61
2022/03/04 11:15:36;;;;;;;7.38;3.78;;;;;;;19.74;26.28;101932.22;7312593;19;129385;-63
2022/03/04 11:18:06;;;;;;;6.28;3.83;;;;;;;19.73;26.20;101936.06;7311320;19;129601;-61
2022/03/04 11:20:36;;;;;;;9.88;4.03;;;;;;;19.72;26.23;101925.16;7313556;19;130082;-60